Time;durP1;ratioP1;P1;durP2;ratioP2;P2;SDS_P1;SDS_P2;PMS_P1;PMS_P2;Temp;Humidity;BMP_temperature;BMP_pressure;BME280_temperature;BME280_humidity;BME280_pressure;Samples;Min_cycle;Max_cycle;Signal;HPM_P1;HPM_P2
2022/09/07 00:00:18;;;;;;;0.20;0.20;;;;;;;;;;5114130;28;20039;-90
2022/09/07 00:02:43;;;;;;;0.10;0.10;;;;;;;;;;5097294;28;20040;-90
2022/09/07 00:05:09;;;;;;;0.10;0.10;;;;;;;;;;5080313;28;20114;-90
2022/09/07 00:07:35;;;;;;;0.10;0.10;;;;;;;;;;5096853;28;20043;-90
2022/09/07 00:10:01;;;;;;;0.10;0.10;;;;;;;;;;5080094;28;20649;-90
2022/09/07 00:12:27;;;;;;;0.10;0.10;;;;;;;;;;5080132;28;20047;-90
2022/09/07 00:14:54;;;;;;;0.15;0.15;;;;;;;;;;5096625;28;20039;-90
2022/09/07 00:17:20;;;;;;;0.10;0.10;;;;;;;;;;5096532;28;20395;-90
2022/09/07 00:19:47;;;;;;;0.10;0.10;;;;;;;;;;5079736;28;20042;-89
2022/09/07 00:22:13;;;;;;;0.10;0.10;;;;;;;;;;5079902;28;20039;-88
2022/09/07 00:24:39;;;;;;;0.10;0.10;;;;;;;;;;5096683;28;20058;-90
2022/09/07 00:27:05;;;;;;;0.10;0.10;;;;;;;;;;5096656;28;20050;-90
2022/09/07 00:29:31;;;;;;;0.10;0.10;;;;;;;;;;5096513;28;20036;-90
2022/09/07 00:31:57;;;;;;;0.30;0.20;;;;;;;;;;5079590;28;20081;-90
2022/09/07 00:34:23;;;;;;;0.15;0.15;;;;;;;;;;5096387;28;20092;-90
2022/09/07 00:36:49;;;;;;;0.10;0.10;;;;;;;;;;5096135;28;20044;-89
2022/09/07 00:39:15;;;;;;;0.10;0.10;;;;;;;;;;5079318;28;20036;-89
2022/09/07 00:41:41;;;;;;;0.10;0.10;;;;;;;;;;5079620;28;20028;-90
2022/09/07 00:44:26;;;;;;;0.10;0.10;;;;;;;;;;5079189;28;20043;-90
2022/09/07 00:46:52;;;;;;;0.10;0.10;;;;;;;;;;5096248;28;20039;-91
2022/09/07 00:49:18;;;;;;;0.10;0.10;;;;;;;;;;5095879;28;20039;-89
2022/09/07 00:51:49;;;;;;;0.10;0.10;;;;;;;;;;5095814;28;20138;-90
2022/09/07 00:54:19;;;;;;;0.10;0.10;;;;;;;;;;5079067;28;20052;-88
2022/09/07 00:56:45;;;;;;;0.17;0.17;;;;;;;;;;5079118;28;20497;-89
2022/09/07 00:59:13;;;;;;;0.10;0.10;;;;;;;;;;5079286;28;20071;-90
2022/09/07 01:01:39;;;;;;;0.10;0.10;;;;;;;;;;5095603;28;20039;-90
2022/09/07 01:04:05;;;;;;;0.10;0.10;;;;;;;;;;5079022;28;20050;-90
2022/09/07 01:06:35;;;;;;;0.10;0.10;;;;;;;;;;5078962;28;20047;-90
2022/09/07 01:09:14;;;;;;;0.10;0.10;;;;;;;;;;5078811;28;20130;-89
2022/09/07 01:11:44;;;;;;;0.10;0.10;;;;;;;;;;5079154;28;20039;-89
2022/09/07 01:14:10;;;;;;;0.10;0.10;;;;;;;;;;5079319;28;20039;-90
2022/09/07 01:16:55;;;;;;;0.10;0.10;;;;;;;;;;5078543;28;20044;-89
2022/09/07 01:19:24;;;;;;;0.10;0.10;;;;;;;;;;5112263;28;20395;-89
2022/09/07 01:22:12;;;;;;;0.10;0.10;;;;;;;;;;5095597;28;20039;-88
2022/09/07 01:24:57;;;;;;;0.10;0.10;;;;;;;;;;5078441;28;20074;-89
2022/09/07 01:27:44;;;;;;;0.63;0.38;;;;;;;;;;5112397;28;20078;-89
2022/09/07 01:30:20;;;;;;;0.20;0.20;;;;;;;;;;5095322;28;20047;-89
2022/09/07 01:32:55;;;;;;;0.10;0.10;;;;;;;;;;5094721;28;20059;-88
2022/09/07 01:35:22;;;;;;;0.10;0.10;;;;;;;;;;5112160;28;20051;-88
2022/09/07 01:37:50;;;;;;;0.10;0.10;;;;;;;;;;5078297;28;20040;-89
2022/09/07 01:40:18;;;;;;;0.10;0.10;;;;;;;;;;5078341;28;20065;-88
2022/09/07 01:42:45;;;;;;;0.10;0.10;;;;;;;;;;5095713;28;20036;-88
2022/09/07 01:45:11;;;;;;;0.20;0.20;;;;;;;;;;5078048;28;20079;-88
2022/09/07 01:47:47;;;;;;;0.20;0.20;;;;;;;;;;5095004;28;20039;-88
2022/09/07 01:50:14;;;;;;;0.10;0.10;;;;;;;;;;5078151;28;20046;-89
2022/09/07 01:52:46;;;;;;;0.10;0.10;;;;;;;;;;5094993;28;20050;-89
2022/09/07 01:55:14;;;;;;;0.10;0.10;;;;;;;;;;5077922;28;20093;-90
2022/09/07 01:57:45;;;;;;;0.10;0.10;;;;;;;;;;5077886;28;20039;-89
2022/09/07 02:00:14;;;;;;;0.10;0.10;;;;;;;;;;5094679;28;20390;-89
2022/09/07 02:02:47;;;;;;;0.17;0.17;;;;;;;;;;5094742;28;20482;-89
2022/09/07 02:05:23;;;;;;;0.10;0.10;;;;;;;;;;5111521;28;20118;-89
2022/09/07 02:07:57;;;;;;;0.10;0.10;;;;;;;;;;5094852;28;20043;-88
2022/09/07 02:10:24;;;;;;;0.10;0.10;;;;;;;;;;5077856;28;20051;-89
2022/09/07 02:13:01;;;;;;;0.10;0.10;;;;;;;;;;5094809;28;20435;-89
2022/09/07 02:15:29;;;;;;;0.10;0.10;;;;;;;;;;5077763;28;20176;-89
2022/09/07 02:17:57;;;;;;;0.10;0.10;;;;;;;;;;5077740;28;20047;-90
2022/09/07 02:20:25;;;;;;;0.10;0.10;;;;;;;;;;5077771;28;20124;-90
2022/09/07 02:22:53;;;;;;;0.10;0.10;;;;;;;;;;5077603;28;20031;-89
2022/09/07 02:25:20;;;;;;;0.10;0.10;;;;;;;;;;5094454;28;20036;-89
2022/09/07 02:27:47;;;;;;;0.20;0.20;;;;;;;;;;5077625;28;20088;-89
2022/09/07 02:30:13;;;;;;;0.10;0.10;;;;;;;;;;5094359;28;20051;-89
2022/09/07 02:32:39;;;;;;;0.20;0.20;;;;;;;;;;5077314;28;20091;-89
2022/09/07 02:35:05;;;;;;;0.10;0.10;;;;;;;;;;5094174;28;20086;-88
2022/09/07 02:37:32;;;;;;;0.10;0.10;;;;;;;;;;5094175;28;20085;-90
2022/09/07 02:39:59;;;;;;;0.10;0.10;;;;;;;;;;5094475;28;20049;-89
2022/09/07 02:42:33;;;;;;;0.10;0.10;;;;;;;;;;5094299;28;20043;-89
2022/09/07 02:44:59;;;;;;;0.10;0.10;;;;;;;;;;5096942;28;20067;-89
2022/09/07 02:47:45;;;;;;;0.15;0.15;;;;;;;;;;5098348;28;20043;-89
2022/09/07 02:50:14;;;;;;;0.10;0.10;;;;;;;;;;5081508;28;20093;-89
2022/09/07 02:52:50;;;;;;;0.10;0.10;;;;;;;;;;5098321;28;20051;-88
2022/09/07 02:55:22;;;;;;;0.10;0.10;;;;;;;;;;5081287;28;20040;-89
2022/09/07 02:57:59;;;;;;;0.10;0.10;;;;;;;;;;5098312;28;20069;-89
2022/09/07 03:00:25;;;;;;;0.10;0.10;;;;;;;;;;5098168;28;20031;-89
2022/09/07 03:02:56;;;;;;;0.10;0.10;;;;;;;;;;5098438;28;20112;-89
2022/09/07 03:05:25;;;;;;;0.10;0.10;;;;;;;;;;5098229;28;20036;-89
2022/09/07 03:08:03;;;;;;;0.10;0.10;;;;;;;;;;5098356;28;20040;-89
2022/09/07 03:10:29;;;;;;;0.10;0.10;;;;;;;;;;5081202;28;20092;-89
2022/09/07 03:12:55;;;;;;;0.10;0.10;;;;;;;;;;5081151;28;20043;-89
2022/09/07 03:15:22;;;;;;;0.10;0.10;;;;;;;;;;5081298;28;20131;-89
2022/09/07 03:17:48;;;;;;;0.10;0.10;;;;;;;;;;5098119;28;20543;-89
2022/09/07 03:20:17;;;;;;;0.10;0.10;;;;;;;;;;5098017;28;20382;-90
2022/09/07 03:22:44;;;;;;;0.10;0.10;;;;;;;;;;5081249;28;20047;-89
2022/09/07 03:25:10;;;;;;;0.10;0.10;;;;;;;;;;5097509;28;20039;-89
2022/09/07 03:27:36;;;;;;;0.10;0.10;;;;;;;;;;5097601;28;20047;-89
2022/09/07 03:30:03;;;;;;;0.10;0.10;;;;;;;;;;5097626;28;20040;-89
2022/09/07 03:32:33;;;;;;;0.10;0.10;;;;;;;;;;5097482;28;20108;-90
2022/09/07 03:34:59;;;;;;;0.20;0.20;;;;;;;;;;5080661;28;20050;-89
2022/09/07 03:37:25;;;;;;;0.10;0.10;;;;;;;;;;5080492;28;20051;-89
2022/09/07 03:39:51;;;;;;;0.10;0.10;;;;;;;;;;5097496;28;20123;-89
2022/09/07 03:42:17;;;;;;;0.10;0.10;;;;;;;;;;5097596;28;20438;-89
2022/09/07 03:44:44;;;;;;;0.10;0.10;;;;;;;;;;5080628;28;20071;-89
2022/09/07 03:47:10;;;;;;;0.10;0.10;;;;;;;;;;5080650;28;20398;-89
2022/09/07 03:49:36;;;;;;;0.10;0.10;;;;;;;;;;5080316;28;20036;-89
2022/09/07 03:52:02;;;;;;;0.10;0.10;;;;;;;;;;5097470;28;20043;-89
2022/09/07 03:54:28;;;;;;;0.10;0.10;;;;;;;;;;5079651;28;20067;-89
2022/09/07 03:56:54;;;;;;;0.10;0.10;;;;;;;;;;5080065;28;20107;-89
2022/09/07 03:59:20;;;;;;;0.10;0.10;;;;;;;;;;5097070;28;20474;-88
2022/09/07 04:01:45;;;;;;;0.10;0.10;;;;;;;;;;5079979;28;20127;-89
2022/09/07 04:04:11;;;;;;;0.20;0.20;;;;;;;;;;5080014;28;20047;-89
2022/09/07 04:06:37;;;;;;;0.25;0.25;;;;;;;;;;5096875;28;20063;-89
2022/09/07 04:09:04;;;;;;;0.10;0.10;;;;;;;;;;5080001;28;20126;-89
2022/09/07 04:11:30;;;;;;;0.10;0.10;;;;;;;;;;5079800;28;20047;-89
2022/09/07 04:13:56;;;;;;;0.10;0.10;;;;;;;;;;5096631;28;20058;-90
2022/09/07 04:16:23;;;;;;;0.10;0.10;;;;;;;;;;5079912;28;20122;-89
2022/09/07 04:18:50;;;;;;;0.10;0.10;;;;;;;;;;5113479;28;20053;-89
2022/09/07 04:21:19;;;;;;;0.10;0.10;;;;;;;;;;5079926;28;20057;-89
2022/09/07 04:23:45;;;;;;;0.10;0.10;;;;;;;;;;5096371;28;20036;-89
2022/09/07 04:26:15;;;;;;;0.10;0.10;;;;;;;;;;5096594;28;20138;-89
2022/09/07 04:28:41;;;;;;;0.20;0.20;;;;;;;;;;5096361;28;20040;-89
2022/09/07 04:31:07;;;;;;;0.00;0.00;;;;;;;;;;5079612;28;20042;-89
2022/09/07 04:33:33;;;;;;;0.10;0.10;;;;;;;;;;5079554;28;20040;-88
2022/09/07 04:36:00;;;;;;;0.10;0.10;;;;;;;;;;5079384;28;20479;-88
2022/09/07 04:38:26;;;;;;;0.20;0.20;;;;;;;;;;5079691;28;20406;-89
2022/09/07 04:40:59;;;;;;;0.10;0.10;;;;;;;;;;5079298;28;20173;-89
2022/09/07 04:43:25;;;;;;;0.10;0.10;;;;;;;;;;5079445;28;20043;-89
2022/09/07 04:45:51;;;;;;;0.10;0.10;;;;;;;;;;5079261;28;20126;-89
2022/09/07 04:48:17;;;;;;;0.15;0.15;;;;;;;;;;5079270;28;20046;-89
2022/09/07 04:50:43;;;;;;;0.10;0.10;;;;;;;;;;5096194;28;20082;-89
2022/09/07 04:53:09;;;;;;;0.10;0.10;;;;;;;;;;5095726;28;20044;-89
2022/09/07 04:55:35;;;;;;;0.10;0.10;;;;;;;;;;5079283;28;20046;-88
2022/09/07 04:58:01;;;;;;;0.43;0.10;;;;;;;;;;5079085;28;20126;-89
2022/09/07 05:00:27;;;;;;;0.20;0.20;;;;;;;;;;5079585;28;20040;-89
2022/09/07 05:02:53;;;;;;;0.10;0.10;;;;;;;;;;5112605;28;20089;-90
2022/09/07 05:05:19;;;;;;;0.10;0.10;;;;;;;;;;5095705;28;20437;-87
2022/09/07 05:07:45;;;;;;;0.38;0.38;;;;;;;;;;5094773;28;20083;-89
2022/09/07 05:10:11;;;;;;;0.10;0.10;;;;;;;;;;5095739;28;20088;-88
2022/09/07 05:12:37;;;;;;;0.10;0.10;;;;;;;;;;5078862;28;20036;-89
2022/09/07 05:15:03;;;;;;;0.10;0.10;;;;;;;;;;5078753;28;20036;-90
2022/09/07 05:17:29;;;;;;;0.10;0.10;;;;;;;;;;5095567;28;20075;-89
2022/09/07 05:19:56;;;;;;;0.10;0.10;;;;;;;;;;5095560;28;20577;-89
2022/09/07 05:22:23;;;;;;;0.10;0.10;;;;;;;;;;5095517;28;20471;-89
2022/09/07 05:24:49;;;;;;;0.10;0.10;;;;;;;;;;5078781;28;20040;-88
2022/09/07 05:27:15;;;;;;;0.10;0.10;;;;;;;;;;5078807;28;20046;-88
2022/09/07 05:29:41;;;;;;;0.10;0.10;;;;;;;;;;5095315;28;20479;-88
2022/09/07 05:32:08;;;;;;;0.20;0.20;;;;;;;;;;5078439;28;20052;-88
2022/09/07 05:34:34;;;;;;;0.10;0.10;;;;;;;;;;5078263;28;20290;-89
2022/09/07 05:37:00;;;;;;;0.10;0.10;;;;;;;;;;5095380;28;20118;-88
2022/09/07 05:39:26;;;;;;;0.10;0.10;;;;;;;;;;5078403;28;20085;-89
2022/09/07 05:41:52;;;;;;;0.10;0.10;;;;;;;;;;5095336;28;20040;-88
2022/09/07 05:44:18;;;;;;;0.10;0.10;;;;;;;;;;5095195;28;20075;-88
2022/09/07 05:46:44;;;;;;;0.10;0.10;;;;;;;;;;5095036;28;20043;-88
2022/09/07 05:49:10;;;;;;;0.10;0.10;;;;;;;;;;5095015;28;20047;-89
2022/09/07 05:51:37;;;;;;;0.10;0.10;;;;;;;;;;5078057;28;20108;-88
2022/09/07 05:54:04;;;;;;;0.20;0.20;;;;;;;;;;5095054;28;20044;-89
2022/09/07 05:56:30;;;;;;;0.10;0.10;;;;;;;;;;5111817;28;20087;-88
2022/09/07 05:58:56;;;;;;;0.10;0.10;;;;;;;;;;5078276;28;20078;-88
2022/09/07 06:01:22;;;;;;;0.28;0.28;;;;;;;;;;5111811;28;20035;-89
2022/09/07 06:03:48;;;;;;;0.10;0.10;;;;;;;;;;5077963;28;20116;-88
2022/09/07 06:06:15;;;;;;;0.10;0.10;;;;;;;;;;5094927;28;20127;-88
2022/09/07 06:08:49;;;;;;;0.10;0.10;;;;;;;;;;5094889;28;20047;-88
2022/09/07 06:11:16;;;;;;;0.10;0.10;;;;;;;;;;5111908;28;20032;-88
2022/09/07 06:13:42;;;;;;;0.10;0.10;;;;;;;;;;5094835;28;20039;-88
2022/09/07 06:16:08;;;;;;;0.10;0.10;;;;;;;;;;5094903;28;20085;-88
2022/09/07 06:18:35;;;;;;;0.10;0.10;;;;;;;;;;5078312;28;20036;-89
2022/09/07 06:21:02;;;;;;;0.10;0.10;;;;;;;;;;5078338;28;20044;-89
2022/09/07 06:23:29;;;;;;;0.10;0.10;;;;;;;;;;5093450;28;20031;-88
2022/09/07 06:25:55;;;;;;;0.10;0.10;;;;;;;;;;5089394;28;20047;-88
2022/09/07 06:28:26;;;;;;;0.10;0.10;;;;;;;;;;5102880;28;20082;-88
2022/09/07 06:30:52;;;;;;;0.10;0.10;;;;;;;;;;5095330;28;20050;-88
2022/09/07 06:33:18;;;;;;;0.10;0.10;;;;;;;;;;5097445;28;20139;-87
2022/09/07 06:35:53;;;;;;;0.10;0.10;;;;;;;;;;5115461;28;20043;-88
2022/09/07 06:38:19;;;;;;;0.22;0.22;;;;;;;;;;5094165;28;20050;-88
2022/09/07 06:40:46;;;;;;;0.10;0.10;;;;;;;;;;5077452;28;20122;-88
2022/09/07 06:43:12;;;;;;;0.10;0.10;;;;;;;;;;5094162;28;20077;-88
2022/09/07 06:45:38;;;;;;;0.10;0.10;;;;;;;;;;5094301;28;20049;-88
2022/09/07 06:48:04;;;;;;;0.10;0.10;;;;;;;;;;5077741;28;20040;-88
2022/09/07 06:50:30;;;;;;;0.10;0.10;;;;;;;;;;5094325;28;20559;-87
2022/09/07 06:52:56;;;;;;;0.10;0.10;;;;;;;;;;5094291;28;20044;-88
2022/09/07 06:55:22;;;;;;;0.10;0.10;;;;;;;;;;5077532;28;20048;-89
2022/09/07 06:57:51;;;;;;;0.10;0.10;;;;;;;;;;5077547;28;20039;-89
2022/09/07 07:00:17;;;;;;;0.10;0.10;;;;;;;;;;5077609;28;20035;-89
2022/09/07 07:02:43;;;;;;;0.20;0.20;;;;;;;;;;5094179;28;20040;-88
2022/09/07 07:05:10;;;;;;;0.13;0.13;;;;;;;;;;5094319;28;20088;-89
2022/09/07 07:07:36;;;;;;;0.10;0.10;;;;;;;;;;5094920;28;20047;-88
2022/09/07 07:10:02;;;;;;;0.10;0.10;;;;;;;;;;5077286;28;20478;-88
2022/09/07 07:12:30;;;;;;;0.10;0.10;;;;;;;;;;5093947;28;20051;-88
2022/09/07 07:14:56;;;;;;;0.10;0.10;;;;;;;;;;5077243;28;20097;-88
2022/09/07 07:17:22;;;;;;;0.30;0.30;;;;;;;;;;5077099;28;20048;-88
2022/09/07 07:19:48;;;;;;;0.10;0.10;;;;;;;;;;5077149;28;20035;-88
2022/09/07 07:22:14;;;;;;;0.10;0.10;;;;;;;;;;5076943;28;20085;-89
2022/09/07 07:24:40;;;;;;;0.10;0.10;;;;;;;;;;5093903;28;20036;-88
2022/09/07 07:27:06;;;;;;;0.15;0.15;;;;;;;;;;5093814;28;20062;-88
2022/09/07 07:29:33;;;;;;;0.10;0.10;;;;;;;;;;5094064;28;20043;-88
2022/09/07 07:31:59;;;;;;;0.17;0.17;;;;;;;;;;5080363;28;20047;-89
2022/09/07 07:34:25;;;;;;;0.20;0.20;;;;;;;;;;5080620;28;20061;-89
2022/09/07 07:36:51;;;;;;;0.10;0.10;;;;;;;;;;5097420;28;20122;-88
2022/09/07 07:39:17;;;;;;;0.10;0.10;;;;;;;;;;5097358;28;20043;-88
2022/09/07 07:41:43;;;;;;;0.20;0.20;;;;;;;;;;5097146;28;20028;-88
2022/09/07 07:44:08;;;;;;;0.20;0.20;;;;;;;;;;5080509;28;20035;-90
2022/09/07 07:46:34;;;;;;;0.10;0.10;;;;;;;;;;5097684;28;20036;-88
2022/09/07 07:49:02;;;;;;;0.10;0.10;;;;;;;;;;5080316;28;20039;-88
2022/09/07 07:51:28;;;;;;;0.20;0.20;;;;;;;;;;5097290;28;20345;-89
2022/09/07 07:53:54;;;;;;;0.10;0.10;;;;;;;;;;5097467;28;20040;-89
2022/09/07 07:56:20;;;;;;;0.10;0.10;;;;;;;;;;5113742;28;20093;-88
2022/09/07 07:58:47;;;;;;;0.10;0.10;;;;;;;;;;5097499;28;20151;-88
2022/09/07 08:01:13;;;;;;;0.20;0.20;;;;;;;;;;5080081;28;20039;-88
2022/09/07 08:03:40;;;;;;;0.10;0.10;;;;;;;;;;5097111;28;20065;-88
2022/09/07 08:06:10;;;;;;;0.10;0.10;;;;;;;;;;5080115;28;20036;-88
2022/09/07 08:08:36;;;;;;;0.10;0.10;;;;;;;;;;5114162;28;20551;-88
2022/09/07 08:11:07;;;;;;;0.10;0.10;;;;;;;;;;5096937;28;20066;-89
2022/09/07 08:13:33;;;;;;;0.10;0.10;;;;;;;;;;5079920;28;20039;-88
2022/09/07 08:16:00;;;;;;;0.10;0.10;;;;;;;;;;5079965;28;20035;-87
2022/09/07 08:18:26;;;;;;;0.10;0.10;;;;;;;;;;5096656;28;20092;-87
2022/09/07 08:20:52;;;;;;;0.10;0.10;;;;;;;;;;5079777;28;20043;-88
2022/09/07 08:23:19;;;;;;;0.10;0.10;;;;;;;;;;5080106;28;20386;-89
2022/09/07 08:25:51;;;;;;;0.10;0.10;;;;;;;;;;5113289;28;20089;-88
2022/09/07 08:28:17;;;;;;;;;;;;;;;;;;5080080;28;20131;-88
2022/09/07 08:30:43;;;;;;;0.10;0.10;;;;;;;;;;5096535;28;20381;-88
2022/09/07 08:33:09;;;;;;;1.95;0.20;;;;;;;;;;5079548;28;20097;-89
2022/09/07 08:35:35;;;;;;;0.10;0.10;;;;;;;;;;5079662;28;20046;-89
2022/09/07 08:38:01;;;;;;;0.10;0.10;;;;;;;;;;5079230;28;20039;-89
2022/09/07 08:40:29;;;;;;;0.17;0.17;;;;;;;;;;5079348;28;20039;-89
2022/09/07 08:42:55;;;;;;;0.10;0.10;;;;;;;;;;5096652;28;20119;-89
2022/09/07 08:45:25;;;;;;;0.10;0.10;;;;;;;;;;5113002;28;20494;-88
2022/09/07 08:47:51;;;;;;;0.20;0.20;;;;;;;;;;5113031;28;20039;-89
2022/09/07 08:50:28;;;;;;;0.10;0.10;;;;;;;;;;5112947;28;20073;-88
2022/09/07 08:53:06;;;;;;;0.10;0.10;;;;;;;;;;5079735;28;20039;-89
2022/09/07 08:55:39;;;;;;;0.10;0.10;;;;;;;;;;5079446;28;20048;-88
2022/09/07 08:58:06;;;;;;;0.10;0.10;;;;;;;;;;5079052;28;20046;-89
2022/09/07 09:00:32;;;;;;;0.10;0.10;;;;;;;;;;5095815;28;20042;-88
2022/09/07 09:02:58;;;;;;;0.10;0.10;;;;;;;;;;5079090;28;20035;-89
2022/09/07 09:05:31;;;;;;;2.40;0.52;;;;;;;;;;5078868;28;20050;-89
2022/09/07 09:08:15;;;;;;;0.20;0.20;;;;;;;;;;5079025;28;20036;-89
2022/09/07 09:11:00;;;;;;;0.20;0.20;;;;;;;;;;5112635;28;20035;-89
2022/09/07 09:13:41;;;;;;;0.10;0.10;;;;;;;;;;5112304;28;20050;-89
2022/09/07 09:16:13;;;;;;;0.10;0.10;;;;;;;;;;5078961;28;20397;-89
2022/09/07 09:18:52;;;;;;;0.10;0.10;;;;;;;;;;5095789;28;20467;-89
2022/09/07 09:21:18;;;;;;;0.10;0.10;;;;;;;;;;5079075;28;20251;-89
2022/09/07 09:23:45;;;;;;;0.28;0.28;;;;;;;;;;5095331;28;20050;-89
2022/09/07 09:26:19;;;;;;;0.10;0.10;;;;;;;;;;5078345;28;20039;-89
2022/09/07 09:28:45;;;;;;;0.10;0.10;;;;;;;;;;5078798;28;20036;-89
2022/09/07 09:31:25;;;;;;;0.10;0.10;;;;;;;;;;5095131;28;20039;-89
2022/09/07 09:34:08;;;;;;;0.10;0.10;;;;;;;;;;5095303;28;20100;-89
2022/09/07 09:36:41;;;;;;;0.10;0.10;;;;;;;;;;5078373;28;20043;-89
2022/09/07 09:39:26;;;;;;;0.10;0.10;;;;;;;;;;5095506;28;20039;-89
2022/09/07 09:41:54;;;;;;;0.10;0.10;;;;;;;;;;5112235;28;20048;-89
2022/09/07 09:44:20;;;;;;;0.10;0.10;;;;;;;;;;5095083;28;20061;-89
2022/09/07 09:46:51;;;;;;;0.10;0.10;;;;;;;;;;5077983;28;20047;-89
2022/09/07 09:49:21;;;;;;;0.32;0.32;;;;;;;;;;5078644;28;20043;-89
2022/09/07 09:51:51;;;;;;;0.10;0.10;;;;;;;;;;5095632;28;20091;-89
2022/09/07 09:54:20;;;;;;;0.70;0.28;;;;;;;;;;5077920;28;20108;-90
2022/09/07 09:56:47;;;;;;;0.10;0.10;;;;;;;;;;5112008;28;20044;-89
2022/09/07 09:59:19;;;;;;;0.10;0.10;;;;;;;;;;5078203;28;20038;-89
2022/09/07 10:04:29;;;;;;;0.10;0.10;;;;;;;;;;5695413;22;20419;-91
2022/09/07 10:07:02;;;;;;;0.25;0.25;;;;;;;;;;4981936;28;20046;-90
2022/09/07 10:09:27;;;;;;;;;;;;;;;;;;4980622;28;20045;-91
2022/09/07 10:12:01;;;;;;;0.10;0.10;;;;;;;;;;4981351;28;19917;-91
2022/09/07 10:14:31;;;;;;;0.20;0.20;;;;;;;;;;4960560;28;20042;-91
2022/09/07 10:16:58;;;;;;;0.10;0.10;;;;;;;;;;4960247;28;20489;-91
2022/09/07 10:19:34;;;;;;;0.10;0.10;;;;;;;;;;4976517;28;20104;-91
2022/09/07 10:22:01;;;;;;;0.10;0.10;;;;;;;;;;4976491;28;20133;-92
2022/09/07 10:24:28;;;;;;;0.10;0.10;;;;;;;;;;4976251;28;20050;-94
2022/09/07 10:26:54;;;;;;;0.10;0.10;;;;;;;;;;4975885;28;20731;-88
2022/09/07 10:29:21;;;;;;;0.10;0.10;;;;;;;;;;4975725;28;20046;-88
2022/09/07 10:32:06;;;;;;;0.10;0.10;;;;;;;;;;4959609;28;20125;-89
2022/09/07 10:34:41;;;;;;;0.10;0.10;;;;;;;;;;4959759;28;20624;-90
2022/09/07 10:37:07;;;;;;;0.10;0.10;;;;;;;;;;4959506;28;20042;-90
2022/09/07 10:39:34;;;;;;;0.10;0.10;;;;;;;;;;4992007;28;20050;-90
2022/09/07 10:42:01;;;;;;;0.10;0.10;;;;;;;;;;4978316;28;20077;-90
2022/09/07 10:44:26;;;;;;;0.10;0.10;;;;;;;;;;4963901;28;20040;-92
2022/09/07 10:46:56;;;;;;;0.13;0.13;;;;;;;;;;4982491;28;20129;-89
2022/09/07 10:49:30;;;;;;;0.10;0.10;;;;;;;;;;4978332;28;20523;-89
2022/09/07 10:52:09;;;;;;;0.10;0.10;;;;;;;;;;4978479;28;20043;-90
2022/09/07 10:54:38;;;;;;;0.10;0.10;;;;;;;;;;4960732;28;20078;-89
2022/09/07 10:57:22;;;;;;;0.10;0.10;;;;;;;;;;4975491;28;20049;-89
2022/09/07 10:59:48;;;;;;;0.10;0.10;;;;;;;;;;4959132;28;20509;-89
2022/09/07 11:02:16;;;;;;;0.10;0.10;;;;;;;;;;4975235;28;20049;-88
2022/09/07 11:04:52;;;;;;;0.10;0.10;;;;;;;;;;4975522;28;20055;-88
2022/09/07 11:07:51;;;;;;;0.20;0.20;;;;;;;;;;4979081;28;20107;-88
2022/09/07 11:10:37;;;;;;;0.10;0.10;;;;;;;;;;4957622;28;20092;-88
2022/09/07 11:13:04;;;;;;;0.10;0.10;;;;;;;;;;4979084;28;20042;-88
2022/09/07 11:15:31;;;;;;;0.10;0.10;;;;;;;;;;4978828;28;20042;-87
2022/09/07 11:17:59;;;;;;;0.10;0.10;;;;;;;;;;4978614;28;20042;-88
2022/09/07 11:20:26;;;;;;;0.20;0.20;;;;;;;;;;4978702;28;20045;-87
2022/09/07 11:23:11;;;;;;;0.10;0.10;;;;;;;;;;4978983;28;20507;-90
2022/09/07 11:25:41;;;;;;;0.10;0.10;;;;;;;;;;4962890;28;20039;-88
2022/09/07 11:28:11;;;;;;;0.20;0.20;;;;;;;;;;4978832;28;20042;-88
2022/09/07 11:30:40;;;;;;;0.10;0.10;;;;;;;;;;4978935;28;20515;-88
2022/09/07 11:33:06;;;;;;;0.10;0.10;;;;;;;;;;4978652;28;20046;-89
2022/09/07 11:35:54;;;;;;;0.10;0.10;;;;;;;;;;4962827;28;20445;-90
2022/09/07 11:38:24;;;;;;;0.20;0.20;;;;;;;;;;4978326;28;20133;-90
2022/09/07 11:41:01;;;;;;;0.10;0.10;;;;;;;;;;4978638;28;20501;-90
2022/09/07 11:43:29;;;;;;;0.10;0.10;;;;;;;;;;4978381;28;20050;-91
2022/09/07 11:46:31;;;;;;;0.20;0.20;;;;;;;;;;4978105;28;20042;-93
2022/09/07 11:48:57;;;;;;;0.20;0.20;;;;;;;;;;4978125;28;20092;-90
2022/09/07 11:51:26;;;;;;;0.10;0.10;;;;;;;;;;4978254;28;20050;-90
2022/09/07 11:54:15;;;;;;;0.10;0.10;;;;;;;;;;4978311;28;20136;-90
2022/09/07 11:56:41;;;;;;;0.10;0.10;;;;;;;;;;4989363;28;20500;-92
2022/09/07 11:59:26;;;;;;;0.20;0.20;;;;;;;;;;4978595;28;20043;-91
2022/09/07 12:01:52;;;;;;;0.10;0.10;;;;;;;;;;4962188;28;20049;-92
2022/09/07 12:04:38;;;;;;;0.10;0.10;;;;;;;;;;4961568;28;20054;-91
2022/09/07 12:07:14;;;;;;;0.10;0.10;;;;;;;;;;4978000;28;20049;-91
2022/09/07 12:09:40;;;;;;;0.10;0.10;;;;;;;;;;4978396;28;20504;-91
2022/09/07 12:12:06;;;;;;;0.10;0.10;;;;;;;;;;4961820;28;20084;-91
2022/09/07 12:14:50;;;;;;;0.10;0.10;;;;;;;;;;4977872;28;20038;-92
2022/09/07 12:17:19;;;;;;;0.10;0.10;;;;;;;;;;4961354;28;20092;-91
2022/09/07 12:19:46;;;;;;;0.10;0.10;;;;;;;;;;4962314;28;20047;-93
2022/09/07 12:22:19;;;;;;;0.20;0.20;;;;;;;;;;4963762;28;20034;-91
2022/09/07 12:24:50;;;;;;;0.10;0.10;;;;;;;;;;4977597;28;20129;-91
2022/09/07 12:27:19;;;;;;;0.10;0.10;;;;;;;;;;4977691;28;20499;-90
2022/09/07 12:29:45;;;;;;;0.10;0.10;;;;;;;;;;4961454;28;20046;-92
2022/09/07 12:32:11;;;;;;;0.10;0.10;;;;;;;;;;4977574;28;20046;-91
2022/09/07 12:34:37;;;;;;;0.10;0.10;;;;;;;;;;4977701;28;20504;-93
2022/09/07 12:37:09;;;;;;;0.20;0.20;;;;;;;;;;4961463;28;20043;-93
2022/09/07 12:39:42;;;;;;;0.10;0.10;;;;;;;;;;4961849;28;20069;-92
2022/09/07 12:42:08;;;;;;;0.10;0.10;;;;;;;;;;4977709;28;20121;-91
2022/09/07 12:44:34;;;;;;;0.10;0.10;;;;;;;;;;4961353;28;20146;-92
2022/09/07 12:47:01;;;;;;;0.10;0.10;;;;;;;;;;4977915;28;20129;-91
2022/09/07 12:49:39;;;;;;;0.15;0.15;;;;;;;;;;4976868;28;20042;-90
2022/09/07 12:52:14;;;;;;;0.10;0.10;;;;;;;;;;4961063;28;20118;-92
2022/09/07 12:54:43;;;;;;;0.10;0.10;;;;;;;;;;4961461;28;20136;-91
2022/09/07 12:57:22;;;;;;;0.10;0.10;;;;;;;;;;4961081;28;20042;-89
2022/09/07 12:59:58;;;;;;;0.20;0.20;;;;;;;;;;4976851;28;20042;-90
2022/09/07 13:02:24;;;;;;;0.10;0.10;;;;;;;;;;4960756;28;20177;-92
2022/09/07 13:05:08;;;;;;;0.10;0.10;;;;;;;;;;4960652;28;20050;-89
2022/09/07 13:07:34;;;;;;;0.20;0.20;;;;;;;;;;4960804;28;20057;-90
2022/09/07 13:10:02;;;;;;;0.20;0.20;;;;;;;;;;4960645;28;20038;-90
2022/09/07 13:12:31;;;;;;;0.10;0.10;;;;;;;;;;4976500;28;20541;-90
2022/09/07 13:14:57;;;;;;;0.20;0.20;;;;;;;;;;4960356;28;20572;-91
2022/09/07 13:17:26;;;;;;;0.10;0.10;;;;;;;;;;4976811;28;20085;-91
2022/09/07 13:19:52;;;;;;;0.20;0.20;;;;;;;;;;4960583;28;20034;-91
2022/09/07 13:22:30;;;;;;;0.10;0.10;;;;;;;;;;4960578;28;20078;-91
2022/09/07 13:24:58;;;;;;;0.10;0.10;;;;;;;;;;4976443;28;20213;-91
2022/09/07 13:27:36;;;;;;;0.20;0.20;;;;;;;;;;4975667;28;20095;-91
2022/09/07 13:30:14;;;;;;;0.10;0.10;;;;;;;;;;4960434;28;20053;-91
2022/09/07 13:32:41;;;;;;;0.10;0.10;;;;;;;;;;4960135;28;20078;-90
2022/09/07 13:35:20;;;;;;;0.20;0.20;;;;;;;;;;4976469;28;20042;-91
2022/09/07 13:37:56;;;;;;;0.10;0.10;;;;;;;;;;4976226;28;20042;-91
2022/09/07 13:40:24;;;;;;;0.10;0.10;;;;;;;;;;4976231;28;20074;-91
2022/09/07 13:42:50;;;;;;;0.20;0.20;;;;;;;;;;4976245;28;20038;-93
2022/09/07 13:45:27;;;;;;;0.10;0.10;;;;;;;;;;4976332;28;20096;-92
2022/09/07 13:48:19;;;;;;;0.20;0.20;;;;;;;;;;4960258;28;20046;-92
2022/09/07 13:50:54;;;;;;;0.35;0.35;;;;;;;;;;4970321;28;20061;-90
2022/09/07 13:53:23;;;;;;;0.10;0.10;;;;;;;;;;4975954;28;20042;-90
2022/09/07 13:56:02;;;;;;;0.10;0.10;;;;;;;;;;4960222;28;20370;-90
2022/09/07 13:58:34;;;;;;;0.10;0.10;;;;;;;;;;4975816;28;20103;-90
2022/09/07 14:01:02;;;;;;;0.10;0.10;;;;;;;;;;4976404;28;20412;-91
2022/09/07 14:03:30;;;;;;;0.10;0.10;;;;;;;;;;4975690;28;20070;-91
2022/09/07 14:06:15;;;;;;;0.10;0.10;;;;;;;;;;4975622;28;20062;-91
2022/09/07 14:08:41;;;;;;;0.20;0.20;;;;;;;;;;4976083;28;20149;-90
2022/09/07 14:11:17;;;;;;;0.10;0.10;;;;;;;;;;4975921;28;20493;-91
2022/09/07 14:13:43;;;;;;;0.10;0.10;;;;;;;;;;4976161;28;20362;-91
2022/09/07 14:16:09;;;;;;;0.10;0.10;;;;;;;;;;4975717;28;20054;-90
2022/09/07 14:18:35;;;;;;;0.10;0.10;;;;;;;;;;4975779;28;20378;-90
2022/09/07 14:21:01;;;;;;;0.20;0.20;;;;;;;;;;4976803;28;20441;-90
2022/09/07 14:23:31;;;;;;;0.20;0.20;;;;;;;;;;4975965;28;20199;-91
2022/09/07 14:26:13;;;;;;;0.10;0.10;;;;;;;;;;4975401;28;20039;-91
2022/09/07 14:28:39;;;;;;;0.20;0.20;;;;;;;;;;4975809;28;20145;-90
2022/09/07 14:31:11;;;;;;;0.10;0.10;;;;;;;;;;4959340;28;20487;-91
2022/09/07 14:33:38;;;;;;;0.20;0.20;;;;;;;;;;4975724;28;20288;-91
2022/09/07 14:36:05;;;;;;;0.20;0.20;;;;;;;;;;4959515;28;20045;-91
2022/09/07 14:38:31;;;;;;;0.10;0.10;;;;;;;;;;4975949;28;20043;-91
2022/09/07 14:41:01;;;;;;;0.10;0.10;;;;;;;;;;4981905;28;20034;-91
2022/09/07 14:43:28;;;;;;;0.10;0.10;;;;;;;;;;4981874;28;20478;-91
2022/09/07 14:46:05;;;;;;;0.20;0.20;;;;;;;;;;4981963;28;20042;-90
2022/09/07 14:48:31;;;;;;;0.10;0.10;;;;;;;;;;4982075;28;20050;-91
2022/09/07 14:50:57;;;;;;;0.10;0.10;;;;;;;;;;4981906;28;20053;-91
2022/09/07 14:53:23;;;;;;;0.20;0.20;;;;;;;;;;4981802;28;20046;-91
2022/09/07 14:55:49;;;;;;;0.10;0.10;;;;;;;;;;4982077;28;20133;-90
2022/09/07 14:58:15;;;;;;;0.20;0.20;;;;;;;;;;4981755;28;20057;-90